sensor_id;sensor_type;location;lat;lon;timestamp;P1;durP1;ratioP1;P2;durP2;ratioP2
63350;SDS011;74263;51.058;17.040;2023-12-22T00:04:18;9.20;;;2.17;;
63350;SDS011;74263;51.058;17.040;2023-12-22T00:09:20;14.43;;;3.70;;
63350;SDS011;74263;51.058;17.040;2023-12-22T00:14:22;15.70;;;2.72;;
63350;SDS011;74263;51.058;17.040;2023-12-22T00:19:23;9.70;;;2.92;;
63350;SDS011;74263;51.058;17.040;2023-12-22T00:24:25;13.02;;;2.85;;
63350;SDS011;74263;51.058;17.040;2023-12-22T00:29:27;10.13;;;2.72;;
63350;SDS011;74263;51.058;17.040;2023-12-22T00:34:28;15.32;;;2.67;;
63350;SDS011;74263;51.058;17.040;2023-12-22T00:39:30;15.25;;;2.85;;
63350;SDS011;74263;51.058;17.040;2023-12-22T00:44:32;12.10;;;2.90;;
63350;SDS011;74263;51.058;17.040;2023-12-22T00:49:34;9.45;;;2.10;;
63350;SDS011;74263;51.058;17.040;2023-12-22T00:54:35;8.57;;;2.08;;
63350;SDS011;74263;51.058;17.040;2023-12-22T00:59:37;7.22;;;1.60;;
63350;SDS011;74263;51.058;17.040;2023-12-22T01:04:39;8.90;;;1.95;;
63350;SDS011;74263;51.058;17.040;2023-12-22T01:09:42;2.45;;;1.40;;
63350;SDS011;74263;51.058;17.040;2023-12-22T01:19:45;11.82;;;2.25;;
63350;SDS011;74263;51.058;17.040;2023-12-22T01:24:47;8.40;;;2.28;;
63350;SDS011;74263;51.058;17.040;2023-12-22T01:29:49;13.45;;;2.55;;
63350;SDS011;74263;51.058;17.040;2023-12-22T01:34:50;13.60;;;2.55;;
63350;SDS011;74263;51.058;17.040;2023-12-22T01:39:52;6.07;;;1.70;;
63350;SDS011;74263;51.058;17.040;2023-12-22T01:44:54;7.68;;;2.35;;
63350;SDS011;74263;51.058;17.040;2023-12-22T01:49:55;12.73;;;2.85;;
63350;SDS011;74263;51.058;17.040;2023-12-22T01:54:57;15.00;;;2.97;;
63350;SDS011;74263;51.058;17.040;2023-12-22T01:59:59;10.98;;;2.05;;
63350;SDS011;74263;51.058;17.040;2023-12-22T02:05:00;13.85;;;2.72;;
63350;SDS011;74263;51.058;17.040;2023-12-22T02:10:03;10.13;;;2.73;;
63350;SDS011;74263;51.058;17.040;2023-12-22T02:15:04;6.10;;;1.55;;
63350;SDS011;74263;51.058;17.040;2023-12-22T02:20:06;9.77;;;3.53;;
63350;SDS011;74263;51.058;17.040;2023-12-22T02:25:10;8.68;;;2.55;;
63350;SDS011;74263;51.058;17.040;2023-12-22T02:30:13;5.75;;;1.88;;
63350;SDS011;74263;51.058;17.040;2023-12-22T02:35:23;11.50;;;2.58;;
63350;SDS011;74263;51.058;17.040;2023-12-22T02:40:26;4.22;;;1.25;;
63350;SDS011;74263;51.058;17.040;2023-12-22T02:45:28;5.25;;;0.95;;
63350;SDS011;74263;51.058;17.040;2023-12-22T02:50:30;7.18;;;1.60;;
63350;SDS011;74263;51.058;17.040;2023-12-22T02:55:31;5.95;;;1.50;;
63350;SDS011;74263;51.058;17.040;2023-12-22T03:00:33;7.20;;;1.42;;
63350;SDS011;74263;51.058;17.040;2023-12-22T03:05:35;8.52;;;2.10;;
63350;SDS011;74263;51.058;17.040;2023-12-22T03:10:36;7.38;;;1.95;;
63350;SDS011;74263;51.058;17.040;2023-12-22T03:15:38;6.97;;;1.33;;
63350;SDS011;74263;51.058;17.040;2023-12-22T03:20:40;7.32;;;0.95;;
63350;SDS011;74263;51.058;17.040;2023-12-22T03:25:42;3.80;;;1.00;;
63350;SDS011;74263;51.058;17.040;2023-12-22T03:30:43;3.65;;;1.65;;
63350;SDS011;74263;51.058;17.040;2023-12-22T03:35:45;2.95;;;1.17;;
63350;SDS011;74263;51.058;17.040;2023-12-22T03:40:47;3.53;;;0.90;;
63350;SDS011;74263;51.058;17.040;2023-12-22T03:45:48;3.53;;;0.73;;
63350;SDS011;74263;51.058;17.040;2023-12-22T03:50:50;3.08;;;0.63;;
63350;SDS011;74263;51.058;17.040;2023-12-22T03:55:52;2.00;;;0.65;;
63350;SDS011;74263;51.058;17.040;2023-12-22T04:00:54;6.97;;;1.10;;
63350;SDS011;74263;51.058;17.040;2023-12-22T04:05:55;4.32;;;1.08;;
63350;SDS011;74263;51.058;17.040;2023-12-22T04:10:57;12.75;;;1.40;;
63350;SDS011;74263;51.058;17.040;2023-12-22T04:15:59;7.07;;;1.10;;
63350;SDS011;74263;51.058;17.040;2023-12-22T04:21:00;10.73;;;1.88;;
63350;SDS011;74263;51.058;17.040;2023-12-22T04:26:02;5.38;;;1.52;;
63350;SDS011;74263;51.058;17.040;2023-12-22T04:31:04;10.15;;;1.85;;
63350;SDS011;74263;51.058;17.040;2023-12-22T04:36:06;8.00;;;1.50;;
63350;SDS011;74263;51.058;17.040;2023-12-22T04:41:08;10.98;;;2.40;;
63350;SDS011;74263;51.058;17.040;2023-12-22T04:46:09;6.05;;;1.77;;
63350;SDS011;74263;51.058;17.040;2023-12-22T04:51:11;7.50;;;1.73;;
63350;SDS011;74263;51.058;17.040;2023-12-22T04:56:13;4.07;;;1.63;;
63350;SDS011;74263;51.058;17.040;2023-12-22T05:01:14;8.60;;;1.65;;
63350;SDS011;74263;51.058;17.040;2023-12-22T05:06:16;8.30;;;1.60;;
63350;SDS011;74263;51.058;17.040;2023-12-22T05:11:18;9.83;;;1.80;;
63350;SDS011;74263;51.058;17.040;2023-12-22T05:16:20;7.70;;;1.98;;
63350;SDS011;74263;51.058;17.040;2023-12-22T05:21:21;12.30;;;1.70;;
63350;SDS011;74263;51.058;17.040;2023-12-22T05:26:23;6.13;;;1.80;;
63350;SDS011;74263;51.058;17.040;2023-12-22T05:31:25;8.95;;;2.00;;
63350;SDS011;74263;51.058;17.040;2023-12-22T05:36:26;9.98;;;2.20;;
63350;SDS011;74263;51.058;17.040;2023-12-22T05:41:28;8.15;;;1.85;;
63350;SDS011;74263;51.058;17.040;2023-12-22T05:46:30;12.00;;;2.00;;
63350;SDS011;74263;51.058;17.040;2023-12-22T05:51:38;12.85;;;2.85;;
63350;SDS011;74263;51.058;17.040;2023-12-22T05:56:40;9.45;;;1.90;;
63350;SDS011;74263;51.058;17.040;2023-12-22T06:01:41;11.43;;;2.45;;
63350;SDS011;74263;51.058;17.040;2023-12-22T06:06:43;10.15;;;2.80;;
63350;SDS011;74263;51.058;17.040;2023-12-22T06:11:45;14.95;;;4.25;;
63350;SDS011;74263;51.058;17.040;2023-12-22T06:16:47;11.93;;;3.15;;
63350;SDS011;74263;51.058;17.040;2023-12-22T06:21:48;13.55;;;3.65;;
63350;SDS011;74263;51.058;17.040;2023-12-22T06:26:50;6.60;;;1.73;;
63350;SDS011;74263;51.058;17.040;2023-12-22T06:31:52;6.75;;;2.00;;
63350;SDS011;74263;51.058;17.040;2023-12-22T06:36:54;9.30;;;2.22;;
63350;SDS011;74263;51.058;17.040;2023-12-22T06:41:55;6.03;;;1.70;;
63350;SDS011;74263;51.058;17.040;2023-12-22T06:46:57;6.88;;;1.55;;
63350;SDS011;74263;51.058;17.040;2023-12-22T06:51:59;5.20;;;1.05;;
63350;SDS011;74263;51.058;17.040;2023-12-22T06:57:00;12.23;;;1.98;;
63350;SDS011;74263;51.058;17.040;2023-12-22T07:02:02;1.17;;;0.77;;
63350;SDS011;74263;51.058;17.040;2023-12-22T07:07:18;4.55;;;0.93;;
63350;SDS011;74263;51.058;17.040;2023-12-22T07:12:20;2.08;;;1.38;;
63350;SDS011;74263;51.058;17.040;2023-12-22T07:17:22;5.77;;;1.17;;
63350;SDS011;74263;51.058;17.040;2023-12-22T07:22:23;6.43;;;1.48;;
63350;SDS011;74263;51.058;17.040;2023-12-22T07:27:25;6.15;;;1.42;;
63350;SDS011;74263;51.058;17.040;2023-12-22T07:32:28;6.03;;;1.00;;
63350;SDS011;74263;51.058;17.040;2023-12-22T07:37:30;3.00;;;0.75;;
63350;SDS011;74263;51.058;17.040;2023-12-22T07:42:32;3.00;;;1.05;;
63350;SDS011;74263;51.058;17.040;2023-12-22T07:47:34;5.22;;;1.63;;
63350;SDS011;74263;51.058;17.040;2023-12-22T07:52:36;2.55;;;1.48;;
63350;SDS011;74263;51.058;17.040;2023-12-22T07:57:38;7.43;;;1.80;;
63350;SDS011;74263;51.058;17.040;2023-12-22T08:02:39;4.23;;;1.97;;
63350;SDS011;74263;51.058;17.040;2023-12-22T08:07:41;6.20;;;2.05;;
63350;SDS011;74263;51.058;17.040;2023-12-22T08:12:43;4.47;;;1.70;;
63350;SDS011;74263;51.058;17.040;2023-12-22T08:17:48;7.38;;;1.65;;
63350;SDS011;74263;51.058;17.040;2023-12-22T08:22:50;5.75;;;1.52;;
63350;SDS011;74263;51.058;17.040;2023-12-22T08:27:54;7.20;;;1.70;;
63350;SDS011;74263;51.058;17.040;2023-12-22T08:32:56;5.18;;;1.58;;
63350;SDS011;74263;51.058;17.040;2023-12-22T08:37:58;6.17;;;1.50;;
63350;SDS011;74263;51.058;17.040;2023-12-22T08:43:00;6.97;;;1.50;;
63350;SDS011;74263;51.058;17.040;2023-12-22T08:48:02;1.57;;;0.93;;
63350;SDS011;74263;51.058;17.040;2023-12-22T08:53:04;5.03;;;1.67;;
63350;SDS011;74263;51.058;17.040;2023-12-22T08:58:06;5.60;;;1.42;;
63350;SDS011;74263;51.058;17.040;2023-12-22T09:03:08;7.13;;;1.47;;
63350;SDS011;74263;51.058;17.040;2023-12-22T09:08:09;2.97;;;0.50;;
63350;SDS011;74263;51.058;17.040;2023-12-22T09:13:11;1.80;;;0.93;;
63350;SDS011;74263;51.058;17.040;2023-12-22T09:18:13;1.88;;;0.75;;
63350;SDS011;74263;51.058;17.040;2023-12-22T09:23:15;2.10;;;0.90;;
63350;SDS011;74263;51.058;17.040;2023-12-22T09:28:17;1.10;;;0.88;;
63350;SDS011;74263;51.058;17.040;2023-12-22T09:33:18;3.33;;;0.80;;
63350;SDS011;74263;51.058;17.040;2023-12-22T09:38:20;1.52;;;0.90;;
63350;SDS011;74263;51.058;17.040;2023-12-22T09:43:22;2.63;;;1.10;;
63350;SDS011;74263;51.058;17.040;2023-12-22T09:48:24;3.33;;;1.20;;
63350;SDS011;74263;51.058;17.040;2023-12-22T09:53:27;6.72;;;1.20;;
63350;SDS011;74263;51.058;17.040;2023-12-22T10:03:32;4.57;;;1.02;;
63350;SDS011;74263;51.058;17.040;2023-12-22T10:08:34;2.78;;;1.50;;
63350;SDS011;74263;51.058;17.040;2023-12-22T10:13:37;4.40;;;1.37;;
63350;SDS011;74263;51.058;17.040;2023-12-22T10:23:41;3.13;;;1.05;;
63350;SDS011;74263;51.058;17.040;2023-12-22T10:28:43;9.35;;;1.70;;
63350;SDS011;74263;51.058;17.040;2023-12-22T10:33:45;5.70;;;1.67;;
63350;SDS011;74263;51.058;17.040;2023-12-22T10:38:46;3.67;;;1.60;;
63350;SDS011;74263;51.058;17.040;2023-12-22T10:43:48;6.88;;;1.80;;
63350;SDS011;74263;51.058;17.040;2023-12-22T10:48:52;3.05;;;1.38;;
63350;SDS011;74263;51.058;17.040;2023-12-22T10:53:54;3.50;;;1.50;;
63350;SDS011;74263;51.058;17.040;2023-12-22T10:58:56;3.20;;;1.00;;
63350;SDS011;74263;51.058;17.040;2023-12-22T11:03:58;6.40;;;1.30;;
63350;SDS011;74263;51.058;17.040;2023-12-22T11:09:09;2.78;;;1.13;;
63350;SDS011;74263;51.058;17.040;2023-12-22T11:14:11;2.42;;;1.45;;
63350;SDS011;74263;51.058;17.040;2023-12-22T11:19:14;4.28;;;1.05;;
63350;SDS011;74263;51.058;17.040;2023-12-22T11:24:16;10.48;;;1.48;;
63350;SDS011;74263;51.058;17.040;2023-12-22T11:29:18;5.28;;;1.10;;
63350;SDS011;74263;51.058;17.040;2023-12-22T11:34:20;7.57;;;1.70;;
63350;SDS011;74263;51.058;17.040;2023-12-22T11:39:22;4.40;;;1.20;;
63350;SDS011;74263;51.058;17.040;2023-12-22T11:44:23;5.80;;;1.70;;
63350;SDS011;74263;51.058;17.040;2023-12-22T11:49:31;4.07;;;1.30;;
63350;SDS011;74263;51.058;17.040;2023-12-22T11:54:46;4.57;;;0.95;;
63350;SDS011;74263;51.058;17.040;2023-12-22T11:59:49;4.07;;;1.08;;
63350;SDS011;74263;51.058;17.040;2023-12-22T12:04:51;5.53;;;1.48;;
63350;SDS011;74263;51.058;17.040;2023-12-22T12:09:52;3.85;;;0.90;;
63350;SDS011;74263;51.058;17.040;2023-12-22T12:14:55;7.38;;;1.50;;
63350;SDS011;74263;51.058;17.040;2023-12-22T12:19:59;2.08;;;0.77;;
63350;SDS011;74263;51.058;17.040;2023-12-22T12:25:01;4.85;;;1.38;;
63350;SDS011;74263;51.058;17.040;2023-12-22T12:30:06;1.47;;;0.87;;
63350;SDS011;74263;51.058;17.040;2023-12-22T12:35:08;5.80;;;1.50;;
63350;SDS011;74263;51.058;17.040;2023-12-22T12:40:10;2.13;;;0.93;;
63350;SDS011;74263;51.058;17.040;2023-12-22T12:45:12;10.20;;;1.80;;
63350;SDS011;74263;51.058;17.040;2023-12-22T12:50:14;7.22;;;1.73;;
63350;SDS011;74263;51.058;17.040;2023-12-22T12:55:23;4.20;;;1.42;;
63350;SDS011;74263;51.058;17.040;2023-12-22T13:00:29;5.85;;;1.42;;
63350;SDS011;74263;51.058;17.040;2023-12-22T13:05:33;8.40;;;1.83;;
63350;SDS011;74263;51.058;17.040;2023-12-22T13:10:39;8.52;;;1.40;;
63350;SDS011;74263;51.058;17.040;2023-12-22T13:15:42;8.05;;;1.30;;
63350;SDS011;74263;51.058;17.040;2023-12-22T13:20:44;9.60;;;2.00;;
63350;SDS011;74263;51.058;17.040;2023-12-22T13:25:47;3.63;;;1.17;;
63350;SDS011;74263;51.058;17.040;2023-12-22T13:30:50;9.88;;;1.30;;
63350;SDS011;74263;51.058;17.040;2023-12-22T13:35:52;5.77;;;1.80;;
63350;SDS011;74263;51.058;17.040;2023-12-22T13:40:54;7.27;;;1.77;;
63350;SDS011;74263;51.058;17.040;2023-12-22T13:51:00;7.40;;;1.50;;
63350;SDS011;74263;51.058;17.040;2023-12-22T13:56:02;7.95;;;1.35;;
63350;SDS011;74263;51.058;17.040;2023-12-22T14:01:04;5.78;;;1.52;;
63350;SDS011;74263;51.058;17.040;2023-12-22T14:06:14;6.28;;;1.30;;
63350;SDS011;74263;51.058;17.040;2023-12-22T14:11:17;3.67;;;1.45;;
63350;SDS011;74263;51.058;17.040;2023-12-22T14:16:19;4.68;;;1.40;;
63350;SDS011;74263;51.058;17.040;2023-12-22T14:21:21;6.75;;;1.63;;
63350;SDS011;74263;51.058;17.040;2023-12-22T14:26:23;6.40;;;1.83;;
63350;SDS011;74263;51.058;17.040;2023-12-22T14:31:25;5.50;;;1.93;;
63350;SDS011;74263;51.058;17.040;2023-12-22T14:36:26;6.78;;;1.65;;
63350;SDS011;74263;51.058;17.040;2023-12-22T14:41:28;4.85;;;1.73;;
63350;SDS011;74263;51.058;17.040;2023-12-22T14:46:30;6.28;;;2.05;;
63350;SDS011;74263;51.058;17.040;2023-12-22T14:51:35;7.25;;;1.90;;
63350;SDS011;74263;51.058;17.040;2023-12-22T14:56:40;7.85;;;2.65;;
63350;SDS011;74263;51.058;17.040;2023-12-22T15:01:42;6.07;;;1.90;;
63350;SDS011;74263;51.058;17.040;2023-12-22T15:06:46;4.55;;;2.03;;
63350;SDS011;74263;51.058;17.040;2023-12-22T15:12:00;5.45;;;1.92;;
63350;SDS011;74263;51.058;17.040;2023-12-22T15:17:02;7.60;;;2.33;;
63350;SDS011;74263;51.058;17.040;2023-12-22T15:22:04;7.43;;;2.27;;
63350;SDS011;74263;51.058;17.040;2023-12-22T15:27:11;4.88;;;2.13;;
63350;SDS011;74263;51.058;17.040;2023-12-22T15:32:13;8.00;;;2.35;;
63350;SDS011;74263;51.058;17.040;2023-12-22T15:37:15;7.18;;;2.03;;
63350;SDS011;74263;51.058;17.040;2023-12-22T15:42:16;7.80;;;2.88;;
63350;SDS011;74263;51.058;17.040;2023-12-22T15:47:18;9.35;;;2.33;;
63350;SDS011;74263;51.058;17.040;2023-12-22T15:52:20;8.17;;;2.20;;
63350;SDS011;74263;51.058;17.040;2023-12-22T15:57:22;7.00;;;2.07;;
63350;SDS011;74263;51.058;17.040;2023-12-22T16:02:24;8.77;;;3.03;;
63350;SDS011;74263;51.058;17.040;2023-12-22T16:07:25;6.22;;;2.40;;
63350;SDS011;74263;51.058;17.040;2023-12-22T16:12:28;12.98;;;2.13;;
63350;SDS011;74263;51.058;17.040;2023-12-22T16:17:30;15.17;;;2.73;;
63350;SDS011;74263;51.058;17.040;2023-12-22T16:22:33;8.63;;;2.70;;
63350;SDS011;74263;51.058;17.040;2023-12-22T16:27:36;11.48;;;3.75;;
63350;SDS011;74263;51.058;17.040;2023-12-22T16:32:38;7.22;;;2.47;;
63350;SDS011;74263;51.058;17.040;2023-12-22T16:37:43;9.45;;;3.17;;
63350;SDS011;74263;51.058;17.040;2023-12-22T16:42:46;8.68;;;3.35;;
63350;SDS011;74263;51.058;17.040;2023-12-22T16:52:52;9.23;;;3.05;;
63350;SDS011;74263;51.058;17.040;2023-12-22T16:57:55;10.18;;;2.80;;
63350;SDS011;74263;51.058;17.040;2023-12-22T17:02:57;10.85;;;3.05;;
63350;SDS011;74263;51.058;17.040;2023-12-22T17:08:01;9.27;;;3.85;;
63350;SDS011;74263;51.058;17.040;2023-12-22T17:13:05;10.20;;;4.32;;
63350;SDS011;74263;51.058;17.040;2023-12-22T17:18:10;8.52;;;2.67;;
63350;SDS011;74263;51.058;17.040;2023-12-22T17:23:12;12.17;;;3.93;;
63350;SDS011;74263;51.058;17.040;2023-12-22T17:28:15;11.32;;;3.70;;
63350;SDS011;74263;51.058;17.040;2023-12-22T17:33:18;9.30;;;2.80;;
63350;SDS011;74263;51.058;17.040;2023-12-22T17:38:20;13.40;;;3.42;;
63350;SDS011;74263;51.058;17.040;2023-12-22T17:43:21;8.93;;;3.70;;
63350;SDS011;74263;51.058;17.040;2023-12-22T17:48:23;10.35;;;3.13;;
63350;SDS011;74263;51.058;17.040;2023-12-22T17:53:25;9.63;;;3.67;;
63350;SDS011;74263;51.058;17.040;2023-12-22T17:58:27;10.80;;;3.28;;
63350;SDS011;74263;51.058;17.040;2023-12-22T18:03:28;13.25;;;2.28;;
63350;SDS011;74263;51.058;17.040;2023-12-22T18:08:30;8.05;;;1.83;;
63350;SDS011;74263;51.058;17.040;2023-12-22T18:13:32;4.85;;;1.95;;
63350;SDS011;74263;51.058;17.040;2023-12-22T18:18:33;3.53;;;1.80;;
63350;SDS011;74263;51.058;17.040;2023-12-22T18:23:35;4.88;;;1.70;;
63350;SDS011;74263;51.058;17.040;2023-12-22T18:28:37;4.20;;;1.67;;
63350;SDS011;74263;51.058;17.040;2023-12-22T18:33:40;5.47;;;1.67;;
63350;SDS011;74263;51.058;17.040;2023-12-22T18:38:42;4.10;;;1.98;;
63350;SDS011;74263;51.058;17.040;2023-12-22T18:43:44;9.80;;;2.10;;
63350;SDS011;74263;51.058;17.040;2023-12-22T18:48:45;7.00;;;1.77;;
63350;SDS011;74263;51.058;17.040;2023-12-22T18:53:47;4.95;;;2.20;;
63350;SDS011;74263;51.058;17.040;2023-12-22T18:58:49;4.40;;;1.92;;
63350;SDS011;74263;51.058;17.040;2023-12-22T19:03:51;4.70;;;2.20;;
63350;SDS011;74263;51.058;17.040;2023-12-22T19:08:52;9.07;;;2.60;;
63350;SDS011;74263;51.058;17.040;2023-12-22T19:13:54;7.68;;;2.50;;
63350;SDS011;74263;51.058;17.040;2023-12-22T19:18:56;7.10;;;2.15;;
63350;SDS011;74263;51.058;17.040;2023-12-22T19:23:58;9.43;;;3.22;;
63350;SDS011;74263;51.058;17.040;2023-12-22T19:28:59;9.48;;;2.25;;
63350;SDS011;74263;51.058;17.040;2023-12-22T19:34:01;8.43;;;1.88;;
63350;SDS011;74263;51.058;17.040;2023-12-22T19:39:03;9.57;;;3.25;;
63350;SDS011;74263;51.058;17.040;2023-12-22T19:44:04;6.05;;;3.40;;
63350;SDS011;74263;51.058;17.040;2023-12-22T19:49:06;11.40;;;3.20;;
63350;SDS011;74263;51.058;17.040;2023-12-22T19:54:08;6.43;;;2.03;;
63350;SDS011;74263;51.058;17.040;2023-12-22T19:59:10;11.88;;;3.72;;
63350;SDS011;74263;51.058;17.040;2023-12-22T20:04:11;5.20;;;2.50;;
63350;SDS011;74263;51.058;17.040;2023-12-22T20:09:13;5.80;;;2.88;;
63350;SDS011;74263;51.058;17.040;2023-12-22T20:14:15;8.73;;;2.33;;
63350;SDS011;74263;51.058;17.040;2023-12-22T20:19:16;7.53;;;2.58;;
63350;SDS011;74263;51.058;17.040;2023-12-22T20:24:18;9.52;;;2.72;;
63350;SDS011;74263;51.058;17.040;2023-12-22T20:29:20;8.88;;;2.85;;
63350;SDS011;74263;51.058;17.040;2023-12-22T20:34:24;7.90;;;2.50;;
63350;SDS011;74263;51.058;17.040;2023-12-22T20:39:26;4.33;;;2.23;;
63350;SDS011;74263;51.058;17.040;2023-12-22T20:44:27;7.90;;;2.60;;
63350;SDS011;74263;51.058;17.040;2023-12-22T20:49:31;6.13;;;2.10;;
63350;SDS011;74263;51.058;17.040;2023-12-22T20:54:34;9.60;;;2.13;;
63350;SDS011;74263;51.058;17.040;2023-12-22T20:59:36;8.93;;;2.20;;
63350;SDS011;74263;51.058;17.040;2023-12-22T21:04:38;9.53;;;2.53;;
63350;SDS011;74263;51.058;17.040;2023-12-22T21:14:43;3.83;;;1.73;;
63350;SDS011;74263;51.058;17.040;2023-12-22T21:19:50;5.47;;;1.80;;
63350;SDS011;74263;51.058;17.040;2023-12-22T21:24:53;5.65;;;1.58;;
63350;SDS011;74263;51.058;17.040;2023-12-22T21:29:54;5.10;;;2.00;;
63350;SDS011;74263;51.058;17.040;2023-12-22T21:39:59;9.25;;;3.28;;
63350;SDS011;74263;51.058;17.040;2023-12-22T21:45:04;11.75;;;3.13;;
63350;SDS011;74263;51.058;17.040;2023-12-22T21:50:07;8.23;;;2.15;;
63350;SDS011;74263;51.058;17.040;2023-12-22T21:55:09;16.90;;;3.37;;
63350;SDS011;74263;51.058;17.040;2023-12-22T22:00:10;11.57;;;2.13;;
63350;SDS011;74263;51.058;17.040;2023-12-22T22:05:12;5.13;;;2.10;;
63350;SDS011;74263;51.058;17.040;2023-12-22T22:10:16;6.63;;;2.10;;
63350;SDS011;74263;51.058;17.040;2023-12-22T22:15:17;5.65;;;1.95;;
63350;SDS011;74263;51.058;17.040;2023-12-22T22:20:19;8.68;;;2.30;;
63350;SDS011;74263;51.058;17.040;2023-12-22T22:25:21;6.18;;;2.17;;
63350;SDS011;74263;51.058;17.040;2023-12-22T22:30:22;5.95;;;2.30;;
63350;SDS011;74263;51.058;17.040;2023-12-22T22:35:24;12.45;;;2.13;;
63350;SDS011;74263;51.058;17.040;2023-12-22T22:40:26;8.10;;;1.92;;
63350;SDS011;74263;51.058;17.040;2023-12-22T22:45:27;5.88;;;1.50;;
63350;SDS011;74263;51.058;17.040;2023-12-22T22:50:29;4.18;;;1.55;;
63350;SDS011;74263;51.058;17.040;2023-12-22T22:55:31;6.30;;;2.60;;
63350;SDS011;74263;51.058;17.040;2023-12-22T23:00:32;6.65;;;2.35;;
63350;SDS011;74263;51.058;17.040;2023-12-22T23:05:35;6.05;;;2.25;;
63350;SDS011;74263;51.058;17.040;2023-12-22T23:10:37;5.20;;;1.73;;
63350;SDS011;74263;51.058;17.040;2023-12-22T23:15:39;6.73;;;1.97;;
63350;SDS011;74263;51.058;17.040;2023-12-22T23:20:40;4.90;;;2.00;;
63350;SDS011;74263;51.058;17.040;2023-12-22T23:25:42;3.42;;;1.83;;
63350;SDS011;74263;51.058;17.040;2023-12-22T23:30:44;4.93;;;1.90;;
63350;SDS011;74263;51.058;17.040;2023-12-22T23:35:45;7.55;;;1.63;;
63350;SDS011;74263;51.058;17.040;2023-12-22T23:40:47;6.07;;;1.73;;
63350;SDS011;74263;51.058;17.040;2023-12-22T23:45:49;4.47;;;1.70;;
63350;SDS011;74263;51.058;17.040;2023-12-22T23:50:51;6.78;;;1.73;;
63350;SDS011;74263;51.058;17.040;2023-12-22T23:55:52;7.15;;;1.70;;
